Greater Binghamton/Edwin A Link field
KBGM : now visible

Airfield :











YOU CAN JOIN US ON...

 
LOGIN :

Register | Disclaimer

   EN    FR    IT 

 









Legend :    VFR   Marginal VFR   IFR   Intensive IFR   Very Intensive IFR
Visi :
Ceiling :
>= 8 km
>= 3000ft
5 to 8 km
1000 to 3000 ft
1500m to 5 km
500 to 1000 ft
800 to 1500m
200 to 500 ft
< 800m
< 200 ft
Symbols :   Thunderstorms  Fog  Heavy snow  Heavy precipitations  Wind > 20 kt






- Airport Elevation : 1636 ft
- IATA code : BGM


KBGM - Greater Binghamton/Edwin A Link field

CURRENT METAR :
  • 251753Z 16008KT 10SM CLR 19/09 A3032 RMK AO2 SLP267 T01940089 10194 20128 58012

EXPIRED METARs :
  • 251653Z VRB06KT 10SM SCT050 18/09 A3034 RMK AO2 SLP271 T01830094
  • 251553Z 16006KT 10SM BKN049 OVC055 18/11 A3035 RMK AO2 SLP276 T01780106

TAF KBGM
Valid from the 25 at 18:00 until the 26 at 18:00 UTC


251720Z 2518/2618 16005KT P6SM SCT050
FM252100 16010KT P6SM SCT050
FM261400 18014G21KT P6SM BKN050
KZNY FIR / North America



MET'MAP, your aeronautical weather chart ! - Copyright ORBIFLY December 2007 - Disclaimer

ORBIFLY MET'MAP TEAM :

Programming & Development : Alexandra Zaïnal
Original concept : Baudouin d'Aumeries
Technical & hardware support : Manuel Goepfert
Assistance : Marc-Olivier Méhu

Contact : metmap@orbifly.com




SOURCES & CREDITS :

   NOAA       Earth
Advisory